sensor_id;sensor_type;location;lat;lon;timestamp;pressure;altitude;pressure_sealevel;temperature
5571;BMP180;2808;51.240;6.794;2022-10-16T00:00:57;100612.00;;;14.30
5571;BMP180;2808;51.240;6.794;2022-10-16T00:03:24;100613.00;;;14.30
5571;BMP180;2808;51.240;6.794;2022-10-16T00:05:51;100610.00;;;14.30
5571;BMP180;2808;51.240;6.794;2022-10-16T00:08:20;100612.00;;;14.30
5571;BMP180;2808;51.240;6.794;2022-10-16T00:10:48;100616.00;;;14.30
5571;BMP180;2808;51.240;6.794;2022-10-16T00:13:15;100611.00;;;14.30
5571;BMP180;2808;51.240;6.794;2022-10-16T00:15:44;100608.00;;;14.30
5571;BMP180;2808;51.240;6.794;2022-10-16T00:18:12;100620.00;;;14.30
5571;BMP180;2808;51.240;6.794;2022-10-16T00:20:40;100628.00;;;14.30
5571;BMP180;2808;51.240;6.794;2022-10-16T00:23:07;100627.00;;;14.30
5571;BMP180;2808;51.240;6.794;2022-10-16T00:25:37;100630.00;;;14.30
5571;BMP180;2808;51.240;6.794;2022-10-16T00:28:05;100632.00;;;14.30
5571;BMP180;2808;51.240;6.794;2022-10-16T00:30:32;100627.00;;;14.30
5571;BMP180;2808;51.240;6.794;2022-10-16T00:33:00;100632.00;;;14.30
5571;BMP180;2808;51.240;6.794;2022-10-16T00:35:27;100621.00;;;14.20
5571;BMP180;2808;51.240;6.794;2022-10-16T00:37:55;100628.00;;;14.20
5571;BMP180;2808;51.240;6.794;2022-10-16T00:40:22;100619.00;;;14.20
5571;BMP180;2808;51.240;6.794;2022-10-16T00:42:51;100618.00;;;14.30
5571;BMP180;2808;51.240;6.794;2022-10-16T00:45:18;100615.00;;;14.20
5571;BMP180;2808;51.240;6.794;2022-10-16T00:47:46;100617.00;;;14.20
5571;BMP180;2808;51.240;6.794;2022-10-16T00:50:22;100615.00;;;14.20
5571;BMP180;2808;51.240;6.794;2022-10-16T00:52:52;100616.00;;;14.20
5571;BMP180;2808;51.240;6.794;2022-10-16T00:55:19;100612.00;;;14.20
5571;BMP180;2808;51.240;6.794;2022-10-16T00:57:47;100608.00;;;14.10
5571;BMP180;2808;51.240;6.794;2022-10-16T01:00:19;100608.00;;;14.10
5571;BMP180;2808;51.240;6.794;2022-10-16T01:02:52;100617.00;;;14.10
5571;BMP180;2808;51.240;6.794;2022-10-16T01:05:21;100607.00;;;14.10
5571;BMP180;2808;51.240;6.794;2022-10-16T01:07:54;100614.00;;;14.10
5571;BMP180;2808;51.240;6.794;2022-10-16T01:10:28;100616.00;;;14.00
5571;BMP180;2808;51.240;6.794;2022-10-16T01:13:01;100622.00;;;14.00
5571;BMP180;2808;51.240;6.794;2022-10-16T01:15:36;100630.00;;;13.90
5571;BMP180;2808;51.240;6.794;2022-10-16T01:18:08;100633.00;;;14.00
5571;BMP180;2808;51.240;6.794;2022-10-16T01:20:42;100626.00;;;13.90
5571;BMP180;2808;51.240;6.794;2022-10-16T01:23:24;100628.00;;;13.90
5571;BMP180;2808;51.240;6.794;2022-10-16T01:26:18;100639.00;;;13.90
5571;BMP180;2808;51.240;6.794;2022-10-16T01:28:56;100627.00;;;13.90
5571;BMP180;2808;51.240;6.794;2022-10-16T01:31:30;100630.00;;;13.90
5571;BMP180;2808;51.240;6.794;2022-10-16T01:34:02;100631.00;;;13.80
5571;BMP180;2808;51.240;6.794;2022-10-16T01:36:36;100628.00;;;13.80
5571;BMP180;2808;51.240;6.794;2022-10-16T01:39:05;100616.00;;;13.90
5571;BMP180;2808;51.240;6.794;2022-10-16T01:41:36;100616.00;;;13.90
5571;BMP180;2808;51.240;6.794;2022-10-16T01:44:09;100621.00;;;13.90
5571;BMP180;2808;51.240;6.794;2022-10-16T01:46:41;100619.00;;;13.90
5571;BMP180;2808;51.240;6.794;2022-10-16T01:49:10;100632.00;;;13.90
5571;BMP180;2808;51.240;6.794;2022-10-16T01:51:38;100622.00;;;13.90
5571;BMP180;2808;51.240;6.794;2022-10-16T01:54:08;100624.00;;;13.90
5571;BMP180;2808;51.240;6.794;2022-10-16T01:56:37;100633.00;;;14.00
5571;BMP180;2808;51.240;6.794;2022-10-16T01:59:11;100632.00;;;14.00
5571;BMP180;2808;51.240;6.794;2022-10-16T02:01:42;100631.00;;;14.00
5571;BMP180;2808;51.240;6.794;2022-10-16T02:04:15;100629.00;;;14.00
5571;BMP180;2808;51.240;6.794;2022-10-16T02:06:43;100622.00;;;14.00
5571;BMP180;2808;51.240;6.794;2022-10-16T02:09:11;100624.00;;;14.00
5571;BMP180;2808;51.240;6.794;2022-10-16T02:11:41;100627.00;;;14.00
5571;BMP180;2808;51.240;6.794;2022-10-16T02:14:10;100638.00;;;14.00
5571;BMP180;2808;51.240;6.794;2022-10-16T02:16:40;100644.00;;;14.00
5571;BMP180;2808;51.240;6.794;2022-10-16T02:19:08;100636.00;;;14.00
5571;BMP180;2808;51.240;6.794;2022-10-16T02:21:41;100639.00;;;14.10
5571;BMP180;2808;51.240;6.794;2022-10-16T02:24:14;100644.00;;;14.10
5571;BMP180;2808;51.240;6.794;2022-10-16T02:26:51;100640.00;;;14.10
5571;BMP180;2808;51.240;6.794;2022-10-16T02:29:26;100642.00;;;14.10
5571;BMP180;2808;51.240;6.794;2022-10-16T02:31:59;100648.00;;;14.10
5571;BMP180;2808;51.240;6.794;2022-10-16T02:34:29;100641.00;;;14.10
5571;BMP180;2808;51.240;6.794;2022-10-16T02:36:59;100646.00;;;14.00
5571;BMP180;2808;51.240;6.794;2022-10-16T02:39:29;100647.00;;;14.10
5571;BMP180;2808;51.240;6.794;2022-10-16T02:41:56;100653.00;;;14.00
5571;BMP180;2808;51.240;6.794;2022-10-16T02:44:43;100658.00;;;14.10
5571;BMP180;2808;51.240;6.794;2022-10-16T02:47:10;100650.00;;;14.10
5571;BMP180;2808;51.240;6.794;2022-10-16T02:49:38;100645.00;;;14.00
5571;BMP180;2808;51.240;6.794;2022-10-16T02:52:06;100655.00;;;14.10
5571;BMP180;2808;51.240;6.794;2022-10-16T02:54:33;100651.00;;;14.10
5571;BMP180;2808;51.240;6.794;2022-10-16T02:57:00;100651.00;;;14.00
5571;BMP180;2808;51.240;6.794;2022-10-16T02:59:28;100655.00;;;14.10
5571;BMP180;2808;51.240;6.794;2022-10-16T03:01:57;100651.00;;;14.00
5571;BMP180;2808;51.240;6.794;2022-10-16T03:04:24;100650.00;;;14.00
5571;BMP180;2808;51.240;6.794;2022-10-16T03:06:51;100657.00;;;14.00
5571;BMP180;2808;51.240;6.794;2022-10-16T03:09:21;100655.00;;;14.00
5571;BMP180;2808;51.240;6.794;2022-10-16T03:11:48;100655.00;;;14.00
5571;BMP180;2808;51.240;6.794;2022-10-16T03:14:16;100646.00;;;13.90
5571;BMP180;2808;51.240;6.794;2022-10-16T03:16:43;100649.00;;;13.90
5571;BMP180;2808;51.240;6.794;2022-10-16T03:19:12;100648.00;;;13.90
5571;BMP180;2808;51.240;6.794;2022-10-16T03:21:39;100640.00;;;13.90
5571;BMP180;2808;51.240;6.794;2022-10-16T03:24:07;100635.00;;;13.90
5571;BMP180;2808;51.240;6.794;2022-10-16T03:26:34;100648.00;;;13.90
5571;BMP180;2808;51.240;6.794;2022-10-16T03:29:02;100645.00;;;13.80
5571;BMP180;2808;51.240;6.794;2022-10-16T03:31:30;100643.00;;;13.80
5571;BMP180;2808;51.240;6.794;2022-10-16T03:33:57;100647.00;;;13.80
5571;BMP180;2808;51.240;6.794;2022-10-16T03:36:26;100648.00;;;13.80
5571;BMP180;2808;51.240;6.794;2022-10-16T03:38:53;100654.00;;;13.80
5571;BMP180;2808;51.240;6.794;2022-10-16T03:41:21;100654.00;;;13.80
5571;BMP180;2808;51.240;6.794;2022-10-16T03:43:48;100656.00;;;13.80
5571;BMP180;2808;51.240;6.794;2022-10-16T03:46:16;100658.00;;;13.80
5571;BMP180;2808;51.240;6.794;2022-10-16T03:48:43;100658.00;;;13.80
5571;BMP180;2808;51.240;6.794;2022-10-16T03:51:11;100655.00;;;13.70
5571;BMP180;2808;51.240;6.794;2022-10-16T03:53:39;100662.00;;;13.70
5571;BMP180;2808;51.240;6.794;2022-10-16T03:56:07;100668.00;;;13.70
5571;BMP180;2808;51.240;6.794;2022-10-16T03:58:34;100665.00;;;13.60
5571;BMP180;2808;51.240;6.794;2022-10-16T04:01:02;100664.00;;;13.60
5571;BMP180;2808;51.240;6.794;2022-10-16T04:03:29;100655.00;;;13.50
5571;BMP180;2808;51.240;6.794;2022-10-16T04:05:56;100661.00;;;13.50
5571;BMP180;2808;51.240;6.794;2022-10-16T04:08:24;100673.00;;;13.50
5571;BMP180;2808;51.240;6.794;2022-10-16T04:10:53;100680.00;;;13.50
5571;BMP180;2808;51.240;6.794;2022-10-16T04:13:20;100673.00;;;13.50
5571;BMP180;2808;51.240;6.794;2022-10-16T04:15:48;100676.00;;;13.40
5571;BMP180;2808;51.240;6.794;2022-10-16T04:18:15;100683.00;;;13.40
5571;BMP180;2808;51.240;6.794;2022-10-16T04:20:43;100685.00;;;13.40
5571;BMP180;2808;51.240;6.794;2022-10-16T04:23:10;100693.00;;;13.40
5571;BMP180;2808;51.240;6.794;2022-10-16T04:25:40;100697.00;;;13.40
5571;BMP180;2808;51.240;6.794;2022-10-16T04:28:09;100699.00;;;13.40
5571;BMP180;2808;51.240;6.794;2022-10-16T04:30:38;100716.00;;;13.40
5571;BMP180;2808;51.240;6.794;2022-10-16T04:33:05;100719.00;;;13.40
5571;BMP180;2808;51.240;6.794;2022-10-16T04:35:33;100718.00;;;13.40
5571;BMP180;2808;51.240;6.794;2022-10-16T04:38:00;100709.00;;;13.40
5571;BMP180;2808;51.240;6.794;2022-10-16T04:40:28;100712.00;;;13.30
5571;BMP180;2808;51.240;6.794;2022-10-16T04:42:58;100701.00;;;13.30
5571;BMP180;2808;51.240;6.794;2022-10-16T04:45:27;100694.00;;;13.30
5571;BMP180;2808;51.240;6.794;2022-10-16T04:47:57;100704.00;;;13.30
5571;BMP180;2808;51.240;6.794;2022-10-16T04:50:25;100711.00;;;13.30
5571;BMP180;2808;51.240;6.794;2022-10-16T04:52:52;100723.00;;;13.30
5571;BMP180;2808;51.240;6.794;2022-10-16T04:55:20;100727.00;;;13.30
5571;BMP180;2808;51.240;6.794;2022-10-16T04:57:47;100731.00;;;13.30
5571;BMP180;2808;51.240;6.794;2022-10-16T05:00:16;100730.00;;;13.30
5571;BMP180;2808;51.240;6.794;2022-10-16T05:02:45;100734.00;;;13.30
5571;BMP180;2808;51.240;6.794;2022-10-16T05:05:21;100739.00;;;13.30
5571;BMP180;2808;51.240;6.794;2022-10-16T05:07:56;100736.00;;;13.30
5571;BMP180;2808;51.240;6.794;2022-10-16T05:10:24;100733.00;;;13.30
5571;BMP180;2808;51.240;6.794;2022-10-16T05:12:52;100736.00;;;13.30
5571;BMP180;2808;51.240;6.794;2022-10-16T05:15:19;100751.00;;;13.30
5571;BMP180;2808;51.240;6.794;2022-10-16T05:17:51;100744.00;;;13.30
5571;BMP180;2808;51.240;6.794;2022-10-16T05:20:19;100751.00;;;13.30
5571;BMP180;2808;51.240;6.794;2022-10-16T05:22:46;100758.00;;;13.30
5571;BMP180;2808;51.240;6.794;2022-10-16T05:25:14;100758.00;;;13.30
5571;BMP180;2808;51.240;6.794;2022-10-16T05:27:41;100766.00;;;13.20
5571;BMP180;2808;51.240;6.794;2022-10-16T05:30:09;100757.00;;;13.20
5571;BMP180;2808;51.240;6.794;2022-10-16T05:32:37;100754.00;;;13.20
5571;BMP180;2808;51.240;6.794;2022-10-16T05:35:06;100757.00;;;13.20
5571;BMP180;2808;51.240;6.794;2022-10-16T05:37:34;100759.00;;;13.20
5571;BMP180;2808;51.240;6.794;2022-10-16T05:40:02;100760.00;;;13.20
5571;BMP180;2808;51.240;6.794;2022-10-16T05:42:31;100774.00;;;13.20
5571;BMP180;2808;51.240;6.794;2022-10-16T05:44:58;100764.00;;;13.20
5571;BMP180;2808;51.240;6.794;2022-10-16T05:47:26;100774.00;;;13.20
5571;BMP180;2808;51.240;6.794;2022-10-16T05:49:54;100785.00;;;13.20
5571;BMP180;2808;51.240;6.794;2022-10-16T05:52:23;100779.00;;;13.20
5571;BMP180;2808;51.240;6.794;2022-10-16T05:54:50;100785.00;;;13.20
5571;BMP180;2808;51.240;6.794;2022-10-16T05:57:18;100782.00;;;13.20
5571;BMP180;2808;51.240;6.794;2022-10-16T05:59:45;100789.00;;;13.30
5571;BMP180;2808;51.240;6.794;2022-10-16T06:02:13;100796.00;;;13.30
5571;BMP180;2808;51.240;6.794;2022-10-16T06:04:41;100807.00;;;13.30
5571;BMP180;2808;51.240;6.794;2022-10-16T06:07:08;100803.00;;;13.30
5571;BMP180;2808;51.240;6.794;2022-10-16T06:09:38;100797.00;;;13.30
5571;BMP180;2808;51.240;6.794;2022-10-16T06:12:05;100806.00;;;13.30
5571;BMP180;2808;51.240;6.794;2022-10-16T06:14:32;100809.00;;;13.30
5571;BMP180;2808;51.240;6.794;2022-10-16T06:17:00;100814.00;;;13.30
5571;BMP180;2808;51.240;6.794;2022-10-16T06:19:27;100816.00;;;13.30
5571;BMP180;2808;51.240;6.794;2022-10-16T06:21:55;100807.00;;;13.40
5571;BMP180;2808;51.240;6.794;2022-10-16T06:24:24;100816.00;;;13.40
5571;BMP180;2808;51.240;6.794;2022-10-16T06:26:53;100814.00;;;13.40
5571;BMP180;2808;51.240;6.794;2022-10-16T06:29:21;100825.00;;;13.40
5571;BMP180;2808;51.240;6.794;2022-10-16T06:31:48;100819.00;;;13.50
5571;BMP180;2808;51.240;6.794;2022-10-16T06:34:15;100818.00;;;13.50
5571;BMP180;2808;51.240;6.794;2022-10-16T06:36:43;100819.00;;;13.60
5571;BMP180;2808;51.240;6.794;2022-10-16T06:39:10;100824.00;;;13.70
5571;BMP180;2808;51.240;6.794;2022-10-16T06:41:38;100834.00;;;13.80
5571;BMP180;2808;51.240;6.794;2022-10-16T06:44:08;100839.00;;;13.90
5571;BMP180;2808;51.240;6.794;2022-10-16T06:46:37;100844.00;;;14.00
5571;BMP180;2808;51.240;6.794;2022-10-16T06:49:04;100847.00;;;14.20
5571;BMP180;2808;51.240;6.794;2022-10-16T06:51:32;100859.00;;;14.20
5571;BMP180;2808;51.240;6.794;2022-10-16T06:54:01;100855.00;;;14.30
5571;BMP180;2808;51.240;6.794;2022-10-16T06:56:29;100853.00;;;14.40
5571;BMP180;2808;51.240;6.794;2022-10-16T06:58:57;100864.00;;;14.50
5571;BMP180;2808;51.240;6.794;2022-10-16T07:01:27;100873.00;;;14.70
5571;BMP180;2808;51.240;6.794;2022-10-16T07:03:54;100871.00;;;14.70
5571;BMP180;2808;51.240;6.794;2022-10-16T07:06:24;100869.00;;;14.70
5571;BMP180;2808;51.240;6.794;2022-10-16T07:08:52;100884.00;;;14.70
5571;BMP180;2808;51.240;6.794;2022-10-16T07:11:22;100879.00;;;14.70
5571;BMP180;2808;51.240;6.794;2022-10-16T07:13:50;100886.00;;;14.60
5571;BMP180;2808;51.240;6.794;2022-10-16T07:16:21;100889.00;;;14.60
5571;BMP180;2808;51.240;6.794;2022-10-16T07:18:55;100897.00;;;14.50
5571;BMP180;2808;51.240;6.794;2022-10-16T07:21:25;100905.00;;;14.50
5571;BMP180;2808;51.240;6.794;2022-10-16T07:23:56;100908.00;;;14.50
5571;BMP180;2808;51.240;6.794;2022-10-16T07:26:30;100915.00;;;14.50
5571;BMP180;2808;51.240;6.794;2022-10-16T07:29:06;100905.00;;;14.60
5571;BMP180;2808;51.240;6.794;2022-10-16T07:31:34;100919.00;;;14.70
5571;BMP180;2808;51.240;6.794;2022-10-16T07:34:13;100922.00;;;14.70
5571;BMP180;2808;51.240;6.794;2022-10-16T07:36:43;100928.00;;;14.70
5571;BMP180;2808;51.240;6.794;2022-10-16T07:39:35;100931.00;;;14.90
5571;BMP180;2808;51.240;6.794;2022-10-16T07:42:06;100935.00;;;15.00
5571;BMP180;2808;51.240;6.794;2022-10-16T07:44:35;100930.00;;;15.30
5571;BMP180;2808;51.240;6.794;2022-10-16T07:47:03;100936.00;;;15.50
5571;BMP180;2808;51.240;6.794;2022-10-16T07:49:35;100934.00;;;15.90
5571;BMP180;2808;51.240;6.794;2022-10-16T07:52:06;100941.00;;;16.20
5571;BMP180;2808;51.240;6.794;2022-10-16T07:54:34;100941.00;;;16.60
5571;BMP180;2808;51.240;6.794;2022-10-16T07:57:03;100948.00;;;16.90
5571;BMP180;2808;51.240;6.794;2022-10-16T07:59:31;100943.00;;;17.20
5571;BMP180;2808;51.240;6.794;2022-10-16T08:01:58;100949.00;;;17.40
5571;BMP180;2808;51.240;6.794;2022-10-16T08:04:26;100955.00;;;17.70
5571;BMP180;2808;51.240;6.794;2022-10-16T08:06:55;100961.00;;;17.90
5571;BMP180;2808;51.240;6.794;2022-10-16T08:09:23;100959.00;;;18.10
5571;BMP180;2808;51.240;6.794;2022-10-16T08:12:16;100958.00;;;18.30
5571;BMP180;2808;51.240;6.794;2022-10-16T08:14:54;100972.00;;;18.60
5571;BMP180;2808;51.240;6.794;2022-10-16T08:17:35;100972.00;;;18.80
5571;BMP180;2808;51.240;6.794;2022-10-16T08:20:03;100972.00;;;19.00
5571;BMP180;2808;51.240;6.794;2022-10-16T08:22:33;100974.00;;;19.10
5571;BMP180;2808;51.240;6.794;2022-10-16T08:25:01;100981.00;;;19.20
5571;BMP180;2808;51.240;6.794;2022-10-16T08:27:34;100978.00;;;19.30
5571;BMP180;2808;51.240;6.794;2022-10-16T08:30:02;100988.00;;;19.30
5571;BMP180;2808;51.240;6.794;2022-10-16T08:32:30;100985.00;;;19.30
5571;BMP180;2808;51.240;6.794;2022-10-16T08:34:57;100996.00;;;19.40
5571;BMP180;2808;51.240;6.794;2022-10-16T08:37:29;100996.00;;;19.40
5571;BMP180;2808;51.240;6.794;2022-10-16T08:39:58;101000.00;;;19.50
5571;BMP180;2808;51.240;6.794;2022-10-16T08:42:37;101000.00;;;19.60
5571;BMP180;2808;51.240;6.794;2022-10-16T08:45:27;101004.00;;;19.80
5571;BMP180;2808;51.240;6.794;2022-10-16T08:48:05;100995.00;;;19.80
5571;BMP180;2808;51.240;6.794;2022-10-16T08:50:38;101000.00;;;19.90
5571;BMP180;2808;51.240;6.794;2022-10-16T08:53:09;101016.00;;;19.90
5571;BMP180;2808;51.240;6.794;2022-10-16T08:55:43;101019.00;;;20.10
5571;BMP180;2808;51.240;6.794;2022-10-16T08:58:14;101031.00;;;20.10
5571;BMP180;2808;51.240;6.794;2022-10-16T09:00:43;101036.00;;;20.20
5571;BMP180;2808;51.240;6.794;2022-10-16T09:03:17;101035.00;;;20.10
5571;BMP180;2808;51.240;6.794;2022-10-16T09:06:05;101036.00;;;20.10
5571;BMP180;2808;51.240;6.794;2022-10-16T09:11:19;101041.00;;;20.20
5571;BMP180;2808;51.240;6.794;2022-10-16T09:13:57;101041.00;;;20.10
5571;BMP180;2808;51.240;6.794;2022-10-16T09:16:37;101049.00;;;20.10
5571;BMP180;2808;51.240;6.794;2022-10-16T09:19:15;101041.00;;;20.20
5571;BMP180;2808;51.240;6.794;2022-10-16T09:21:45;101052.00;;;20.30
5571;BMP180;2808;51.240;6.794;2022-10-16T09:24:18;101048.00;;;20.20
5571;BMP180;2808;51.240;6.794;2022-10-16T09:26:53;101049.00;;;20.10
5571;BMP180;2808;51.240;6.794;2022-10-16T09:29:32;101057.00;;;19.90
5571;BMP180;2808;51.240;6.794;2022-10-16T09:32:11;101062.00;;;20.00
5571;BMP180;2808;51.240;6.794;2022-10-16T09:34:55;101060.00;;;20.00
5571;BMP180;2808;51.240;6.794;2022-10-16T09:37:26;101060.00;;;20.00
5571;BMP180;2808;51.240;6.794;2022-10-16T09:39:56;101056.00;;;20.10
5571;BMP180;2808;51.240;6.794;2022-10-16T09:42:30;101060.00;;;20.10
5571;BMP180;2808;51.240;6.794;2022-10-16T09:44:59;101056.00;;;20.00
5571;BMP180;2808;51.240;6.794;2022-10-16T09:47:29;101060.00;;;20.00
5571;BMP180;2808;51.240;6.794;2022-10-16T09:50:03;101058.00;;;20.10
5571;BMP180;2808;51.240;6.794;2022-10-16T09:52:33;101073.00;;;20.00
5571;BMP180;2808;51.240;6.794;2022-10-16T10:57:21;101084.00;;;18.50
5571;BMP180;2808;51.240;6.794;2022-10-16T11:00:13;101100.00;;;18.50
5571;BMP180;2808;51.240;6.794;2022-10-16T11:02:58;101103.00;;;18.50
5571;BMP180;2808;51.240;6.794;2022-10-16T12:16:24;101129.00;;;19.10
5571;BMP180;2808;51.240;6.794;2022-10-16T12:19:24;101128.00;;;19.20
5571;BMP180;2808;51.240;6.794;2022-10-16T12:22:28;101118.00;;;19.30
5571;BMP180;2808;51.240;6.794;2022-10-16T12:42:54;101113.00;;;19.40
5571;BMP180;2808;51.240;6.794;2022-10-16T12:45:30;101111.00;;;19.40
5571;BMP180;2808;51.240;6.794;2022-10-16T12:47:59;101116.00;;;19.50
5571;BMP180;2808;51.240;6.794;2022-10-16T12:50:32;101117.00;;;19.50
5571;BMP180;2808;51.240;6.794;2022-10-16T12:53:02;101118.00;;;19.70
5571;BMP180;2808;51.240;6.794;2022-10-16T12:55:35;101119.00;;;19.70
5571;BMP180;2808;51.240;6.794;2022-10-16T12:58:29;101122.00;;;19.70
5571;BMP180;2808;51.240;6.794;2022-10-16T13:01:10;101123.00;;;19.60
5571;BMP180;2808;51.240;6.794;2022-10-16T13:04:03;101118.00;;;19.50
5571;BMP180;2808;51.240;6.794;2022-10-16T13:06:39;101119.00;;;19.40
5571;BMP180;2808;51.240;6.794;2022-10-16T13:09:24;101115.00;;;19.30
5571;BMP180;2808;51.240;6.794;2022-10-16T13:15:09;101113.00;;;19.30
5571;BMP180;2808;51.240;6.794;2022-10-16T13:17:48;101131.00;;;19.40
5571;BMP180;2808;51.240;6.794;2022-10-16T13:20:21;101128.00;;;19.50
5571;BMP180;2808;51.240;6.794;2022-10-16T13:23:04;101122.00;;;19.60
5571;BMP180;2808;51.240;6.794;2022-10-16T13:25:49;101134.00;;;19.50
5571;BMP180;2808;51.240;6.794;2022-10-16T13:28:27;101128.00;;;19.50
5571;BMP180;2808;51.240;6.794;2022-10-16T13:30:57;101125.00;;;19.50
5571;BMP180;2808;51.240;6.794;2022-10-16T13:33:30;101128.00;;;19.40
5571;BMP180;2808;51.240;6.794;2022-10-16T13:36:00;101125.00;;;19.30
5571;BMP180;2808;51.240;6.794;2022-10-16T13:38:28;101129.00;;;19.30
5571;BMP180;2808;51.240;6.794;2022-10-16T13:41:00;101130.00;;;19.30
5571;BMP180;2808;51.240;6.794;2022-10-16T13:43:31;101121.00;;;19.30
5571;BMP180;2808;51.240;6.794;2022-10-16T13:46:02;101127.00;;;19.40
5571;BMP180;2808;51.240;6.794;2022-10-16T13:48:31;101122.00;;;19.50
5571;BMP180;2808;51.240;6.794;2022-10-16T13:51:04;101118.00;;;19.60
5571;BMP180;2808;51.240;6.794;2022-10-16T13:53:34;101123.00;;;19.60
5571;BMP180;2808;51.240;6.794;2022-10-16T13:56:04;101112.00;;;19.60
5571;BMP180;2808;51.240;6.794;2022-10-16T13:58:32;101125.00;;;19.70
5571;BMP180;2808;51.240;6.794;2022-10-16T14:01:03;101130.00;;;19.70
5571;BMP180;2808;51.240;6.794;2022-10-16T14:03:33;101135.00;;;19.70
5571;BMP180;2808;51.240;6.794;2022-10-16T14:06:03;101130.00;;;19.70
5571;BMP180;2808;51.240;6.794;2022-10-16T14:08:32;101140.00;;;19.70
5571;BMP180;2808;51.240;6.794;2022-10-16T14:11:01;101141.00;;;19.60
5571;BMP180;2808;51.240;6.794;2022-10-16T14:13:36;101146.00;;;19.40
5571;BMP180;2808;51.240;6.794;2022-10-16T14:16:08;101147.00;;;19.40
5571;BMP180;2808;51.240;6.794;2022-10-16T14:18:38;101155.00;;;19.40
5571;BMP180;2808;51.240;6.794;2022-10-16T14:21:11;101137.00;;;19.40
5571;BMP180;2808;51.240;6.794;2022-10-16T14:23:40;101113.00;;;19.40
5571;BMP180;2808;51.240;6.794;2022-10-16T14:26:16;101117.00;;;19.40
5571;BMP180;2808;51.240;6.794;2022-10-16T14:28:45;101128.00;;;19.40
5571;BMP180;2808;51.240;6.794;2022-10-16T14:31:27;101130.00;;;19.50
5571;BMP180;2808;51.240;6.794;2022-10-16T14:33:55;101137.00;;;19.60
5571;BMP180;2808;51.240;6.794;2022-10-16T14:36:25;101134.00;;;19.50
5571;BMP180;2808;51.240;6.794;2022-10-16T14:39:02;101140.00;;;19.40
5571;BMP180;2808;51.240;6.794;2022-10-16T14:41:32;101135.00;;;19.30
5571;BMP180;2808;51.240;6.794;2022-10-16T14:44:03;101128.00;;;19.20
5571;BMP180;2808;51.240;6.794;2022-10-16T14:46:36;101138.00;;;19.20
5571;BMP180;2808;51.240;6.794;2022-10-16T14:49:13;101135.00;;;19.20
5571;BMP180;2808;51.240;6.794;2022-10-16T14:51:45;101148.00;;;19.20
5571;BMP180;2808;51.240;6.794;2022-10-16T14:54:12;101153.00;;;19.20
5571;BMP180;2808;51.240;6.794;2022-10-16T14:56:47;101159.00;;;19.20
5571;BMP180;2808;51.240;6.794;2022-10-16T14:59:24;101148.00;;;19.10
5571;BMP180;2808;51.240;6.794;2022-10-16T15:01:59;101151.00;;;19.10
5571;BMP180;2808;51.240;6.794;2022-10-16T15:04:30;101139.00;;;19.10
5571;BMP180;2808;51.240;6.794;2022-10-16T15:07:19;101148.00;;;19.00
5571;BMP180;2808;51.240;6.794;2022-10-16T15:10:05;101157.00;;;19.10
5571;BMP180;2808;51.240;6.794;2022-10-16T15:16:49;101144.00;;;18.90
5571;BMP180;2808;51.240;6.794;2022-10-16T15:19:48;101152.00;;;18.90
5571;BMP180;2808;51.240;6.794;2022-10-16T15:22:17;101141.00;;;18.90
5571;BMP180;2808;51.240;6.794;2022-10-16T15:32:39;101113.00;;;18.80
5571;BMP180;2808;51.240;6.794;2022-10-16T15:38:59;101109.00;;;18.70
5571;BMP180;2808;51.240;6.794;2022-10-16T15:41:50;101106.00;;;18.70
5571;BMP180;2808;51.240;6.794;2022-10-16T15:44:33;101110.00;;;18.60
5571;BMP180;2808;51.240;6.794;2022-10-16T15:47:11;101112.00;;;18.60
5571;BMP180;2808;51.240;6.794;2022-10-16T15:50:01;101112.00;;;18.60
5571;BMP180;2808;51.240;6.794;2022-10-16T15:52:54;101106.00;;;18.50
5571;BMP180;2808;51.240;6.794;2022-10-16T15:55:30;101111.00;;;18.50
5571;BMP180;2808;51.240;6.794;2022-10-16T15:58:13;101107.00;;;18.50
5571;BMP180;2808;51.240;6.794;2022-10-16T16:00:45;101105.00;;;18.40
5571;BMP180;2808;51.240;6.794;2022-10-16T16:03:13;101103.00;;;18.40
5571;BMP180;2808;51.240;6.794;2022-10-16T16:05:46;101101.00;;;18.40
5571;BMP180;2808;51.240;6.794;2022-10-16T16:15:06;101100.00;;;18.30
5571;BMP180;2808;51.240;6.794;2022-10-16T16:17:41;101095.00;;;18.20
5571;BMP180;2808;51.240;6.794;2022-10-16T16:20:18;101103.00;;;18.20
5571;BMP180;2808;51.240;6.794;2022-10-16T16:22:46;101096.00;;;18.10
5571;BMP180;2808;51.240;6.794;2022-10-16T16:25:20;101101.00;;;18.10
5571;BMP180;2808;51.240;6.794;2022-10-16T16:27:52;101095.00;;;18.10
5571;BMP180;2808;51.240;6.794;2022-10-16T16:30:24;101111.00;;;18.00
5571;BMP180;2808;51.240;6.794;2022-10-16T16:32:52;101110.00;;;18.00
5571;BMP180;2808;51.240;6.794;2022-10-16T16:35:31;101096.00;;;18.00
5571;BMP180;2808;51.240;6.794;2022-10-16T16:38:05;101104.00;;;18.00
5571;BMP180;2808;51.240;6.794;2022-10-16T16:40:44;101105.00;;;17.90
5571;BMP180;2808;51.240;6.794;2022-10-16T16:43:29;101116.00;;;17.90
5571;BMP180;2808;51.240;6.794;2022-10-16T17:43:27;101170.00;;;17.50
5571;BMP180;2808;51.240;6.794;2022-10-16T17:45:54;101170.00;;;17.50
5571;BMP180;2808;51.240;6.794;2022-10-16T17:48:22;101174.00;;;17.50
5571;BMP180;2808;51.240;6.794;2022-10-16T17:50:50;101167.00;;;17.40
5571;BMP180;2808;51.240;6.794;2022-10-16T17:53:35;101180.00;;;17.40
5571;BMP180;2808;51.240;6.794;2022-10-16T19:34:02;101256.00;;;17.30
5571;BMP180;2808;51.240;6.794;2022-10-16T19:36:43;101256.00;;;17.30
5571;BMP180;2808;51.240;6.794;2022-10-16T19:39:15;101257.00;;;17.20
5571;BMP180;2808;51.240;6.794;2022-10-16T19:41:44;101252.00;;;17.20
5571;BMP180;2808;51.240;6.794;2022-10-16T19:44:15;101268.00;;;17.20
5571;BMP180;2808;51.240;6.794;2022-10-16T19:46:43;101260.00;;;17.20
5571;BMP180;2808;51.240;6.794;2022-10-16T19:49:14;101260.00;;;17.10
5571;BMP180;2808;51.240;6.794;2022-10-16T19:51:45;101267.00;;;17.10
5571;BMP180;2808;51.240;6.794;2022-10-16T19:54:23;101266.00;;;17.10
5571;BMP180;2808;51.240;6.794;2022-10-16T19:56:50;101269.00;;;17.10
5571;BMP180;2808;51.240;6.794;2022-10-16T19:59:17;101256.00;;;17.10
5571;BMP180;2808;51.240;6.794;2022-10-16T20:01:46;101264.00;;;17.00
5571;BMP180;2808;51.240;6.794;2022-10-16T20:04:30;101264.00;;;17.00
5571;BMP180;2808;51.240;6.794;2022-10-16T20:06:59;101262.00;;;16.90
5571;BMP180;2808;51.240;6.794;2022-10-16T20:09:27;101264.00;;;16.90
5571;BMP180;2808;51.240;6.794;2022-10-16T20:11:56;101261.00;;;16.90
5571;BMP180;2808;51.240;6.794;2022-10-16T20:14:23;101251.00;;;16.80
5571;BMP180;2808;51.240;6.794;2022-10-16T20:16:51;101257.00;;;16.80
5571;BMP180;2808;51.240;6.794;2022-10-16T20:19:19;101249.00;;;16.70
5571;BMP180;2808;51.240;6.794;2022-10-16T20:21:48;101255.00;;;16.70